Hamburg, South Africa
Current Conditions -  °F | °C
As of 4:00 PM on Thursday 27 Nov 2014 (Local Time) from FAEL Reporting Station
Broken Clouds Broken Clouds  
Wind Chill: 70°   Ceiling: 3000
Heat Index: 70°   Visibility: 6mi
Dew Point: 64°   Wind: 7mph
Humidity: 83%   Direction: 70°ENE
Pressure: 29.8"   Gusts: NA
Location:  33.29°S, 27.46°E
Report Text: FAEL 271400Z 07006KT 030V110 9999 SCT014 BKN030 21/18 Q1009 RETS
Loading
Personal Weather Stations






























Interactive Weather Map New forecast layout! Learn more

10-Day Weather Forecast

Advertisements
Track Severe Weather on mobile